sensor_id;sensor_type;location;lat;lon;timestamp;temperature;humidity
5705;DHT22;2877;48.238;11.160;2023-12-20T00:01:41;5.60;99.90
5705;DHT22;2877;48.238;11.160;2023-12-20T00:04:07;5.60;99.90
5705;DHT22;2877;48.238;11.160;2023-12-20T00:06:32;5.70;99.90
5705;DHT22;2877;48.238;11.160;2023-12-20T00:08:58;5.70;99.90
5705;DHT22;2877;48.238;11.160;2023-12-20T00:11:24;5.70;99.90
5705;DHT22;2877;48.238;11.160;2023-12-20T00:13:49;5.70;99.90
5705;DHT22;2877;48.238;11.160;2023-12-20T00:16:15;5.70;99.90
5705;DHT22;2877;48.238;11.160;2023-12-20T00:18:40;5.70;99.90
5705;DHT22;2877;48.238;11.160;2023-12-20T00:21:06;5.60;99.90
5705;DHT22;2877;48.238;11.160;2023-12-20T00:23:32;5.60;99.90
5705;DHT22;2877;48.238;11.160;2023-12-20T00:25:57;5.60;99.90
5705;DHT22;2877;48.238;11.160;2023-12-20T00:28:23;5.50;99.90
5705;DHT22;2877;48.238;11.160;2023-12-20T00:30:48;5.50;99.90
5705;DHT22;2877;48.238;11.160;2023-12-20T00:33:14;5.50;99.90
5705;DHT22;2877;48.238;11.160;2023-12-20T00:35:39;5.40;99.90
5705;DHT22;2877;48.238;11.160;2023-12-20T00:38:05;5.40;99.90
5705;DHT22;2877;48.238;11.160;2023-12-20T00:40:32;5.40;99.90
5705;DHT22;2877;48.238;11.160;2023-12-20T00:42:58;5.40;99.90
5705;DHT22;2877;48.238;11.160;2023-12-20T00:45:23;5.30;99.90
5705;DHT22;2877;48.238;11.160;2023-12-20T00:47:49;5.30;99.90
5705;DHT22;2877;48.238;11.160;2023-12-20T00:50:15;5.40;99.90
5705;DHT22;2877;48.238;11.160;2023-12-20T00:52:41;5.40;99.90
5705;DHT22;2877;48.238;11.160;2023-12-20T00:55:07;5.40;99.90
5705;DHT22;2877;48.238;11.160;2023-12-20T00:57:33;5.40;99.90
5705;DHT22;2877;48.238;11.160;2023-12-20T00:59:58;5.40;99.90
5705;DHT22;2877;48.238;11.160;2023-12-20T01:02:24;5.40;99.90
5705;DHT22;2877;48.238;11.160;2023-12-20T01:04:49;5.40;99.90
5705;DHT22;2877;48.238;11.160;2023-12-20T01:07:15;5.40;99.90
5705;DHT22;2877;48.238;11.160;2023-12-20T01:09:40;5.40;99.90
5705;DHT22;2877;48.238;11.160;2023-12-20T01:12:06;5.40;99.90
5705;DHT22;2877;48.238;11.160;2023-12-20T01:14:31;5.30;99.90
5705;DHT22;2877;48.238;11.160;2023-12-20T01:16:57;5.40;99.90
5705;DHT22;2877;48.238;11.160;2023-12-20T01:19:22;5.40;99.90
5705;DHT22;2877;48.238;11.160;2023-12-20T01:21:50;5.30;99.90
5705;DHT22;2877;48.238;11.160;2023-12-20T01:24:15;5.40;99.90
5705;DHT22;2877;48.238;11.160;2023-12-20T01:26:41;5.40;99.90
5705;DHT22;2877;48.238;11.160;2023-12-20T01:29:06;5.30;99.90
5705;DHT22;2877;48.238;11.160;2023-12-20T01:31:32;5.30;99.90
5705;DHT22;2877;48.238;11.160;2023-12-20T01:33:57;5.30;99.90
5705;DHT22;2877;48.238;11.160;2023-12-20T01:36:23;5.30;99.90
5705;DHT22;2877;48.238;11.160;2023-12-20T01:38:48;5.30;99.90
5705;DHT22;2877;48.238;11.160;2023-12-20T01:41:14;5.40;99.90
5705;DHT22;2877;48.238;11.160;2023-12-20T01:43:40;5.40;99.90
5705;DHT22;2877;48.238;11.160;2023-12-20T01:46:05;5.40;99.90
5705;DHT22;2877;48.238;11.160;2023-12-20T01:48:31;5.40;99.90
5705;DHT22;2877;48.238;11.160;2023-12-20T01:50:59;5.40;99.90
5705;DHT22;2877;48.238;11.160;2023-12-20T01:53:25;5.50;99.90
5705;DHT22;2877;48.238;11.160;2023-12-20T01:55:54;5.50;99.90
5705;DHT22;2877;48.238;11.160;2023-12-20T01:58:21;5.50;99.90
5705;DHT22;2877;48.238;11.160;2023-12-20T02:00:47;5.50;99.90
5705;DHT22;2877;48.238;11.160;2023-12-20T02:03:13;5.50;99.90
5705;DHT22;2877;48.238;11.160;2023-12-20T02:05:39;5.50;99.90
5705;DHT22;2877;48.238;11.160;2023-12-20T02:08:05;5.50;99.90
5705;DHT22;2877;48.238;11.160;2023-12-20T02:10:31;5.50;99.90
5705;DHT22;2877;48.238;11.160;2023-12-20T02:12:57;5.50;99.90
5705;DHT22;2877;48.238;11.160;2023-12-20T02:15:23;5.50;99.90
5705;DHT22;2877;48.238;11.160;2023-12-20T02:17:49;5.50;99.90
5705;DHT22;2877;48.238;11.160;2023-12-20T02:20:15;5.40;99.90
5705;DHT22;2877;48.238;11.160;2023-12-20T02:22:41;5.40;99.90
5705;DHT22;2877;48.238;11.160;2023-12-20T02:25:07;5.50;99.90
5705;DHT22;2877;48.238;11.160;2023-12-20T02:27:32;5.40;99.90
5705;DHT22;2877;48.238;11.160;2023-12-20T02:29:58;5.40;99.90
5705;DHT22;2877;48.238;11.160;2023-12-20T02:32:24;5.40;99.90
5705;DHT22;2877;48.238;11.160;2023-12-20T02:34:55;5.50;99.90
5705;DHT22;2877;48.238;11.160;2023-12-20T02:37:21;5.50;99.90
5705;DHT22;2877;48.238;11.160;2023-12-20T02:39:46;5.60;99.90
5705;DHT22;2877;48.238;11.160;2023-12-20T02:42:12;5.50;99.90
5705;DHT22;2877;48.238;11.160;2023-12-20T02:44:37;5.60;99.90
5705;DHT22;2877;48.238;11.160;2023-12-20T02:47:03;5.50;99.90
5705;DHT22;2877;48.238;11.160;2023-12-20T02:49:29;5.60;99.90
5705;DHT22;2877;48.238;11.160;2023-12-20T02:51:54;5.60;99.90
5705;DHT22;2877;48.238;11.160;2023-12-20T02:54:20;5.60;99.90
5705;DHT22;2877;48.238;11.160;2023-12-20T02:56:45;5.60;99.90
5705;DHT22;2877;48.238;11.160;2023-12-20T02:59:11;5.60;99.90
5705;DHT22;2877;48.238;11.160;2023-12-20T03:01:43;5.60;99.90
5705;DHT22;2877;48.238;11.160;2023-12-20T03:04:08;5.60;99.90
5705;DHT22;2877;48.238;11.160;2023-12-20T03:06:34;5.60;99.90
5705;DHT22;2877;48.238;11.160;2023-12-20T03:08:59;5.60;99.90
5705;DHT22;2877;48.238;11.160;2023-12-20T03:11:28;5.50;99.90
5705;DHT22;2877;48.238;11.160;2023-12-20T03:13:55;5.50;99.90
5705;DHT22;2877;48.238;11.160;2023-12-20T03:16:20;5.50;99.90
5705;DHT22;2877;48.238;11.160;2023-12-20T03:18:46;5.50;99.90
5705;DHT22;2877;48.238;11.160;2023-12-20T03:21:11;5.50;99.90
5705;DHT22;2877;48.238;11.160;2023-12-20T03:23:37;5.40;99.90
5705;DHT22;2877;48.238;11.160;2023-12-20T03:26:03;5.40;99.90
5705;DHT22;2877;48.238;11.160;2023-12-20T03:28:29;5.30;99.90
5705;DHT22;2877;48.238;11.160;2023-12-20T03:30:55;5.20;99.90
5705;DHT22;2877;48.238;11.160;2023-12-20T03:33:20;5.20;99.90
5705;DHT22;2877;48.238;11.160;2023-12-20T03:35:46;5.00;99.90
5705;DHT22;2877;48.238;11.160;2023-12-20T03:38:12;4.90;99.90
5705;DHT22;2877;48.238;11.160;2023-12-20T03:40:37;4.90;99.90
5705;DHT22;2877;48.238;11.160;2023-12-20T03:43:03;4.80;99.90
5705;DHT22;2877;48.238;11.160;2023-12-20T03:45:28;4.70;99.90
5705;DHT22;2877;48.238;11.160;2023-12-20T03:47:54;4.70;99.90
5705;DHT22;2877;48.238;11.160;2023-12-20T03:50:24;4.60;99.90
5705;DHT22;2877;48.238;11.160;2023-12-20T03:52:50;4.60;99.90
5705;DHT22;2877;48.238;11.160;2023-12-20T03:55:15;4.50;99.90
5705;DHT22;2877;48.238;11.160;2023-12-20T03:57:41;4.50;99.90
5705;DHT22;2877;48.238;11.160;2023-12-20T04:00:07;4.50;99.90
5705;DHT22;2877;48.238;11.160;2023-12-20T04:02:40;4.50;99.90
5705;DHT22;2877;48.238;11.160;2023-12-20T04:05:06;4.40;99.90
5705;DHT22;2877;48.238;11.160;2023-12-20T04:07:32;4.40;99.90
5705;DHT22;2877;48.238;11.160;2023-12-20T04:09:58;4.40;99.90
5705;DHT22;2877;48.238;11.160;2023-12-20T04:12:24;4.40;99.90
5705;DHT22;2877;48.238;11.160;2023-12-20T04:14:49;4.50;99.90
5705;DHT22;2877;48.238;11.160;2023-12-20T04:17:15;4.50;99.90
5705;DHT22;2877;48.238;11.160;2023-12-20T04:19:44;4.50;99.90
5705;DHT22;2877;48.238;11.160;2023-12-20T04:22:09;4.50;99.90
5705;DHT22;2877;48.238;11.160;2023-12-20T04:24:35;4.50;99.90
5705;DHT22;2877;48.238;11.160;2023-12-20T04:27:01;4.50;99.90
5705;DHT22;2877;48.238;11.160;2023-12-20T04:29:27;4.40;99.90
5705;DHT22;2877;48.238;11.160;2023-12-20T04:31:52;4.40;99.90
5705;DHT22;2877;48.238;11.160;2023-12-20T04:34:18;4.40;99.90
5705;DHT22;2877;48.238;11.160;2023-12-20T04:36:44;4.30;99.90
5705;DHT22;2877;48.238;11.160;2023-12-20T04:39:11;4.30;99.90
5705;DHT22;2877;48.238;11.160;2023-12-20T04:41:36;4.30;99.90
5705;DHT22;2877;48.238;11.160;2023-12-20T04:44:02;4.30;99.90
5705;DHT22;2877;48.238;11.160;2023-12-20T04:46:27;4.30;99.90
5705;DHT22;2877;48.238;11.160;2023-12-20T04:48:53;4.20;99.90
5705;DHT22;2877;48.238;11.160;2023-12-20T04:51:20;4.20;99.90
5705;DHT22;2877;48.238;11.160;2023-12-20T04:53:45;4.20;99.90
5705;DHT22;2877;48.238;11.160;2023-12-20T04:56:11;4.20;99.90
5705;DHT22;2877;48.238;11.160;2023-12-20T04:58:37;4.20;99.90
5705;DHT22;2877;48.238;11.160;2023-12-20T05:01:03;4.20;99.90
5705;DHT22;2877;48.238;11.160;2023-12-20T05:03:30;4.20;99.90
5705;DHT22;2877;48.238;11.160;2023-12-20T05:05:56;4.20;99.90
5705;DHT22;2877;48.238;11.160;2023-12-20T05:08:21;4.20;99.90
5705;DHT22;2877;48.238;11.160;2023-12-20T05:10:47;4.20;99.90
5705;DHT22;2877;48.238;11.160;2023-12-20T05:13:13;4.20;99.90
5705;DHT22;2877;48.238;11.160;2023-12-20T05:15:38;4.20;99.90
5705;DHT22;2877;48.238;11.160;2023-12-20T05:18:04;4.20;99.90
5705;DHT22;2877;48.238;11.160;2023-12-20T05:20:29;4.10;99.90
5705;DHT22;2877;48.238;11.160;2023-12-20T05:22:55;4.10;99.90
5705;DHT22;2877;48.238;11.160;2023-12-20T05:25:20;4.10;99.90
5705;DHT22;2877;48.238;11.160;2023-12-20T05:27:46;4.10;99.90
5705;DHT22;2877;48.238;11.160;2023-12-20T05:30:12;4.10;99.90
5705;DHT22;2877;48.238;11.160;2023-12-20T05:32:37;4.10;99.90
5705;DHT22;2877;48.238;11.160;2023-12-20T05:35:03;4.10;99.90
5705;DHT22;2877;48.238;11.160;2023-12-20T05:37:29;4.10;99.90
5705;DHT22;2877;48.238;11.160;2023-12-20T05:39:54;4.10;99.90
5705;DHT22;2877;48.238;11.160;2023-12-20T05:42:20;4.10;99.90
5705;DHT22;2877;48.238;11.160;2023-12-20T05:44:45;4.10;99.90
5705;DHT22;2877;48.238;11.160;2023-12-20T05:47:10;4.10;99.90
5705;DHT22;2877;48.238;11.160;2023-12-20T05:49:36;4.10;99.90
5705;DHT22;2877;48.238;11.160;2023-12-20T05:52:02;4.00;99.90
5705;DHT22;2877;48.238;11.160;2023-12-20T05:54:27;4.00;99.90
5705;DHT22;2877;48.238;11.160;2023-12-20T05:56:53;4.00;99.90
5705;DHT22;2877;48.238;11.160;2023-12-20T05:59:18;4.00;99.90
5705;DHT22;2877;48.238;11.160;2023-12-20T06:01:44;3.90;99.90
5705;DHT22;2877;48.238;11.160;2023-12-20T06:04:09;3.90;99.90
5705;DHT22;2877;48.238;11.160;2023-12-20T06:06:40;3.90;99.90
5705;DHT22;2877;48.238;11.160;2023-12-20T06:09:06;3.80;99.90
5705;DHT22;2877;48.238;11.160;2023-12-20T06:11:32;3.80;99.90
5705;DHT22;2877;48.238;11.160;2023-12-20T06:13:57;3.80;99.90
5705;DHT22;2877;48.238;11.160;2023-12-20T06:16:23;3.80;99.90
5705;DHT22;2877;48.238;11.160;2023-12-20T06:18:48;3.70;99.90
5705;DHT22;2877;48.238;11.160;2023-12-20T06:21:14;3.70;99.90
5705;DHT22;2877;48.238;11.160;2023-12-20T06:23:40;3.70;99.90
5705;DHT22;2877;48.238;11.160;2023-12-20T06:26:05;3.70;99.90
5705;DHT22;2877;48.238;11.160;2023-12-20T06:28:31;3.70;99.90
5705;DHT22;2877;48.238;11.160;2023-12-20T06:30:56;3.60;99.90
5705;DHT22;2877;48.238;11.160;2023-12-20T06:33:22;3.60;99.90
5705;DHT22;2877;48.238;11.160;2023-12-20T06:35:49;3.60;99.90
5705;DHT22;2877;48.238;11.160;2023-12-20T06:38:14;3.60;99.90
5705;DHT22;2877;48.238;11.160;2023-12-20T06:40:40;3.60;99.90
5705;DHT22;2877;48.238;11.160;2023-12-20T06:43:05;3.50;99.90
5705;DHT22;2877;48.238;11.160;2023-12-20T06:45:32;3.50;99.90
5705;DHT22;2877;48.238;11.160;2023-12-20T06:47:57;3.50;99.90
5705;DHT22;2877;48.238;11.160;2023-12-20T06:50:24;3.50;99.90
5705;DHT22;2877;48.238;11.160;2023-12-20T06:52:49;3.50;99.90
5705;DHT22;2877;48.238;11.160;2023-12-20T06:55:15;3.50;99.90
5705;DHT22;2877;48.238;11.160;2023-12-20T06:57:40;3.50;99.90
5705;DHT22;2877;48.238;11.160;2023-12-20T07:00:07;3.50;99.90
5705;DHT22;2877;48.238;11.160;2023-12-20T07:02:33;3.50;99.90
5705;DHT22;2877;48.238;11.160;2023-12-20T07:04:59;3.50;99.90
5705;DHT22;2877;48.238;11.160;2023-12-20T07:07:25;3.50;99.90
5705;DHT22;2877;48.238;11.160;2023-12-20T07:09:51;3.50;99.90
5705;DHT22;2877;48.238;11.160;2023-12-20T07:12:17;3.60;99.90
5705;DHT22;2877;48.238;11.160;2023-12-20T07:14:45;3.60;99.90
5705;DHT22;2877;48.238;11.160;2023-12-20T07:17:10;3.60;99.90
5705;DHT22;2877;48.238;11.160;2023-12-20T07:19:37;3.60;99.90
5705;DHT22;2877;48.238;11.160;2023-12-20T07:22:04;3.60;99.90
5705;DHT22;2877;48.238;11.160;2023-12-20T07:24:29;3.60;99.90
5705;DHT22;2877;48.238;11.160;2023-12-20T07:26:55;3.60;99.90
5705;DHT22;2877;48.238;11.160;2023-12-20T07:29:20;3.60;99.90
5705;DHT22;2877;48.238;11.160;2023-12-20T07:31:46;3.60;99.90
5705;DHT22;2877;48.238;11.160;2023-12-20T07:34:11;3.60;99.90
5705;DHT22;2877;48.238;11.160;2023-12-20T07:36:37;3.60;99.90
5705;DHT22;2877;48.238;11.160;2023-12-20T07:39:02;3.60;99.90
5705;DHT22;2877;48.238;11.160;2023-12-20T07:41:28;3.60;99.90
5705;DHT22;2877;48.238;11.160;2023-12-20T07:43:54;3.60;99.90
5705;DHT22;2877;48.238;11.160;2023-12-20T07:46:21;3.60;99.90
5705;DHT22;2877;48.238;11.160;2023-12-20T07:48:48;3.60;99.90
5705;DHT22;2877;48.238;11.160;2023-12-20T07:51:13;3.60;99.90
5705;DHT22;2877;48.238;11.160;2023-12-20T07:53:39;3.60;99.90
5705;DHT22;2877;48.238;11.160;2023-12-20T07:56:15;3.50;99.90
5705;DHT22;2877;48.238;11.160;2023-12-20T07:58:40;3.60;99.90
5705;DHT22;2877;48.238;11.160;2023-12-20T08:01:06;3.60;99.90
5705;DHT22;2877;48.238;11.160;2023-12-20T08:03:32;3.60;99.90
5705;DHT22;2877;48.238;11.160;2023-12-20T08:05:57;3.60;99.90
5705;DHT22;2877;48.238;11.160;2023-12-20T08:08:25;3.60;99.90
5705;DHT22;2877;48.238;11.160;2023-12-20T08:10:50;3.60;99.90
5705;DHT22;2877;48.238;11.160;2023-12-20T08:13:16;3.60;99.90
5705;DHT22;2877;48.238;11.160;2023-12-20T08:15:41;3.60;99.90
5705;DHT22;2877;48.238;11.160;2023-12-20T08:18:07;3.60;99.90
5705;DHT22;2877;48.238;11.160;2023-12-20T08:20:33;3.60;99.90
5705;DHT22;2877;48.238;11.160;2023-12-20T08:22:58;3.60;99.90
5705;DHT22;2877;48.238;11.160;2023-12-20T08:25:24;3.60;99.90
5705;DHT22;2877;48.238;11.160;2023-12-20T08:27:49;3.60;99.90
5705;DHT22;2877;48.238;11.160;2023-12-20T08:30:15;3.60;99.90
5705;DHT22;2877;48.238;11.160;2023-12-20T08:32:43;3.60;99.90
5705;DHT22;2877;48.238;11.160;2023-12-20T08:35:08;3.60;99.90
5705;DHT22;2877;48.238;11.160;2023-12-20T08:37:34;3.70;99.90
5705;DHT22;2877;48.238;11.160;2023-12-20T08:40:01;3.70;99.90
5705;DHT22;2877;48.238;11.160;2023-12-20T08:42:26;3.70;99.90
5705;DHT22;2877;48.238;11.160;2023-12-20T08:44:56;3.80;99.90
5705;DHT22;2877;48.238;11.160;2023-12-20T08:47:22;3.80;99.90
5705;DHT22;2877;48.238;11.160;2023-12-20T08:49:48;3.80;99.90
5705;DHT22;2877;48.238;11.160;2023-12-20T08:52:13;3.80;99.90
5705;DHT22;2877;48.238;11.160;2023-12-20T08:54:39;3.80;99.90
5705;DHT22;2877;48.238;11.160;2023-12-20T08:57:04;3.80;99.90
5705;DHT22;2877;48.238;11.160;2023-12-20T08:59:32;3.90;99.90
5705;DHT22;2877;48.238;11.160;2023-12-20T09:01:58;3.90;99.90
5705;DHT22;2877;48.238;11.160;2023-12-20T09:04:24;3.90;99.90
5705;DHT22;2877;48.238;11.160;2023-12-20T09:06:50;3.90;99.90
5705;DHT22;2877;48.238;11.160;2023-12-20T09:09:15;3.90;99.90
5705;DHT22;2877;48.238;11.160;2023-12-20T09:11:41;4.00;99.90
5705;DHT22;2877;48.238;11.160;2023-12-20T09:14:07;4.00;99.90
5705;DHT22;2877;48.238;11.160;2023-12-20T09:16:33;4.00;99.90
5705;DHT22;2877;48.238;11.160;2023-12-20T09:18:58;4.10;99.90
5705;DHT22;2877;48.238;11.160;2023-12-20T09:21:24;4.10;99.90
5705;DHT22;2877;48.238;11.160;2023-12-20T09:23:50;4.10;99.90
5705;DHT22;2877;48.238;11.160;2023-12-20T09:26:15;4.10;99.90
5705;DHT22;2877;48.238;11.160;2023-12-20T09:28:41;4.20;99.90
5705;DHT22;2877;48.238;11.160;2023-12-20T09:31:06;4.20;99.90
5705;DHT22;2877;48.238;11.160;2023-12-20T09:33:32;4.20;99.90
5705;DHT22;2877;48.238;11.160;2023-12-20T09:35:58;4.20;99.90
5705;DHT22;2877;48.238;11.160;2023-12-20T09:38:24;4.30;99.90
5705;DHT22;2877;48.238;11.160;2023-12-20T09:40:50;4.30;99.90
5705;DHT22;2877;48.238;11.160;2023-12-20T09:43:19;4.40;99.90
5705;DHT22;2877;48.238;11.160;2023-12-20T09:45:46;4.50;99.90
5705;DHT22;2877;48.238;11.160;2023-12-20T09:48:13;4.50;99.90
5705;DHT22;2877;48.238;11.160;2023-12-20T09:50:40;4.60;99.90
5705;DHT22;2877;48.238;11.160;2023-12-20T09:53:08;4.70;99.90
5705;DHT22;2877;48.238;11.160;2023-12-20T09:55:35;4.70;99.90
5705;DHT22;2877;48.238;11.160;2023-12-20T09:58:01;4.70;99.90
5705;DHT22;2877;48.238;11.160;2023-12-20T10:00:27;4.80;99.90
5705;DHT22;2877;48.238;11.160;2023-12-20T10:05:18;4.80;99.90
5705;DHT22;2877;48.238;11.160;2023-12-20T10:07:46;4.80;99.90
5705;DHT22;2877;48.238;11.160;2023-12-20T10:10:13;4.80;99.90
5705;DHT22;2877;48.238;11.160;2023-12-20T10:12:39;4.80;99.90
5705;DHT22;2877;48.238;11.160;2023-12-20T10:15:05;4.90;99.90
5705;DHT22;2877;48.238;11.160;2023-12-20T10:17:31;5.00;99.90
5705;DHT22;2877;48.238;11.160;2023-12-20T10:19:57;5.00;99.90
5705;DHT22;2877;48.238;11.160;2023-12-20T10:22:23;5.00;99.90
5705;DHT22;2877;48.238;11.160;2023-12-20T10:24:49;5.10;99.90
5705;DHT22;2877;48.238;11.160;2023-12-20T10:27:14;5.10;99.90
5705;DHT22;2877;48.238;11.160;2023-12-20T10:29:44;5.10;99.90
5705;DHT22;2877;48.238;11.160;2023-12-20T10:32:26;5.00;99.90
5705;DHT22;2877;48.238;11.160;2023-12-20T10:34:53;5.00;99.90
5705;DHT22;2877;48.238;11.160;2023-12-20T10:37:19;5.00;99.90
5705;DHT22;2877;48.238;11.160;2023-12-20T10:39:50;5.10;99.90
5705;DHT22;2877;48.238;11.160;2023-12-20T10:42:16;5.10;99.90
5705;DHT22;2877;48.238;11.160;2023-12-20T10:44:42;5.20;99.90
5705;DHT22;2877;48.238;11.160;2023-12-20T10:47:09;5.20;99.90
5705;DHT22;2877;48.238;11.160;2023-12-20T10:49:36;5.20;99.90
5705;DHT22;2877;48.238;11.160;2023-12-20T10:52:04;5.20;99.90
5705;DHT22;2877;48.238;11.160;2023-12-20T10:54:30;5.20;99.90
5705;DHT22;2877;48.238;11.160;2023-12-20T10:56:57;5.30;99.90
5705;DHT22;2877;48.238;11.160;2023-12-20T10:59:24;5.30;99.90
5705;DHT22;2877;48.238;11.160;2023-12-20T11:01:50;5.30;99.90
5705;DHT22;2877;48.238;11.160;2023-12-20T11:04:21;5.30;99.90
5705;DHT22;2877;48.238;11.160;2023-12-20T11:06:51;5.30;99.90
5705;DHT22;2877;48.238;11.160;2023-12-20T11:09:38;5.30;99.90
5705;DHT22;2877;48.238;11.160;2023-12-20T11:12:10;5.40;99.90
5705;DHT22;2877;48.238;11.160;2023-12-20T11:14:50;5.40;99.90
5705;DHT22;2877;48.238;11.160;2023-12-20T11:17:16;5.50;99.90
5705;DHT22;2877;48.238;11.160;2023-12-20T11:22:18;5.60;99.90
5705;DHT22;2877;48.238;11.160;2023-12-20T11:24:44;5.60;99.90
5705;DHT22;2877;48.238;11.160;2023-12-20T11:27:12;5.50;99.90
5705;DHT22;2877;48.238;11.160;2023-12-20T11:29:38;5.60;99.90
5705;DHT22;2877;48.238;11.160;2023-12-20T11:34:51;5.60;99.90
5705;DHT22;2877;48.238;11.160;2023-12-20T11:37:19;5.60;99.90
5705;DHT22;2877;48.238;11.160;2023-12-20T11:39:45;5.60;99.90
5705;DHT22;2877;48.238;11.160;2023-12-20T11:42:11;5.60;99.90
5705;DHT22;2877;48.238;11.160;2023-12-20T11:44:38;5.60;99.90
5705;DHT22;2877;48.238;11.160;2023-12-20T11:47:04;5.60;99.90
5705;DHT22;2877;48.238;11.160;2023-12-20T11:49:29;5.50;99.90
5705;DHT22;2877;48.238;11.160;2023-12-20T11:51:56;5.50;99.90
5705;DHT22;2877;48.238;11.160;2023-12-20T11:54:22;5.50;99.90
5705;DHT22;2877;48.238;11.160;2023-12-20T11:56:48;5.60;99.90
5705;DHT22;2877;48.238;11.160;2023-12-20T11:59:13;5.70;99.90
5705;DHT22;2877;48.238;11.160;2023-12-20T12:01:39;5.80;99.90
5705;DHT22;2877;48.238;11.160;2023-12-20T12:04:05;5.80;99.90
5705;DHT22;2877;48.238;11.160;2023-12-20T12:06:32;5.80;99.90
5705;DHT22;2877;48.238;11.160;2023-12-20T12:08:57;5.70;99.90
5705;DHT22;2877;48.238;11.160;2023-12-20T12:11:23;5.50;99.90
5705;DHT22;2877;48.238;11.160;2023-12-20T12:13:49;5.30;99.90
5705;DHT22;2877;48.238;11.160;2023-12-20T12:16:18;5.20;99.90
5705;DHT22;2877;48.238;11.160;2023-12-20T12:18:45;5.00;99.90
5705;DHT22;2877;48.238;11.160;2023-12-20T12:21:18;4.90;99.90
5705;DHT22;2877;48.238;11.160;2023-12-20T12:23:43;4.80;99.90
5705;DHT22;2877;48.238;11.160;2023-12-20T12:26:09;4.60;99.90
5705;DHT22;2877;48.238;11.160;2023-12-20T12:28:35;4.50;99.90
5705;DHT22;2877;48.238;11.160;2023-12-20T12:31:00;4.40;99.90
5705;DHT22;2877;48.238;11.160;2023-12-20T12:33:26;4.30;99.90
5705;DHT22;2877;48.238;11.160;2023-12-20T12:35:52;4.30;99.90
5705;DHT22;2877;48.238;11.160;2023-12-20T12:38:21;4.20;99.90
5705;DHT22;2877;48.238;11.160;2023-12-20T12:40:47;4.20;99.90
5705;DHT22;2877;48.238;11.160;2023-12-20T12:43:12;4.00;99.90
5705;DHT22;2877;48.238;11.160;2023-12-20T12:45:38;4.00;99.90
5705;DHT22;2877;48.238;11.160;2023-12-20T12:48:04;3.90;99.90
5705;DHT22;2877;48.238;11.160;2023-12-20T12:50:31;3.90;99.90
5705;DHT22;2877;48.238;11.160;2023-12-20T12:52:56;4.00;99.90
5705;DHT22;2877;48.238;11.160;2023-12-20T12:55:22;4.00;99.90
5705;DHT22;2877;48.238;11.160;2023-12-20T12:57:47;4.10;99.90
5705;DHT22;2877;48.238;11.160;2023-12-20T13:00:13;4.10;99.90
5705;DHT22;2877;48.238;11.160;2023-12-20T13:02:39;4.10;99.90
5705;DHT22;2877;48.238;11.160;2023-12-20T13:05:08;4.20;99.90
5705;DHT22;2877;48.238;11.160;2023-12-20T13:07:34;4.40;99.90
5705;DHT22;2877;48.238;11.160;2023-12-20T13:09:59;4.50;99.90
5705;DHT22;2877;48.238;11.160;2023-12-20T13:12:25;4.50;99.90
5705;DHT22;2877;48.238;11.160;2023-12-20T13:14:51;4.50;99.90
5705;DHT22;2877;48.238;11.160;2023-12-20T13:17:16;4.50;99.90
5705;DHT22;2877;48.238;11.160;2023-12-20T13:19:42;4.50;99.90
5705;DHT22;2877;48.238;11.160;2023-12-20T13:22:08;4.60;99.90
5705;DHT22;2877;48.238;11.160;2023-12-20T13:24:33;4.60;99.90
5705;DHT22;2877;48.238;11.160;2023-12-20T13:26:59;4.60;99.90
5705;DHT22;2877;48.238;11.160;2023-12-20T13:29:24;4.60;99.90
5705;DHT22;2877;48.238;11.160;2023-12-20T13:31:52;4.70;99.90
5705;DHT22;2877;48.238;11.160;2023-12-20T13:34:18;4.70;99.90
5705;DHT22;2877;48.238;11.160;2023-12-20T13:36:44;4.60;99.90
5705;DHT22;2877;48.238;11.160;2023-12-20T13:39:13;4.60;99.90
5705;DHT22;2877;48.238;11.160;2023-12-20T13:41:39;4.50;99.90
5705;DHT22;2877;48.238;11.160;2023-12-20T13:44:04;4.50;99.90
5705;DHT22;2877;48.238;11.160;2023-12-20T13:46:30;4.50;99.90
5705;DHT22;2877;48.238;11.160;2023-12-20T13:48:56;4.50;99.90
5705;DHT22;2877;48.238;11.160;2023-12-20T13:51:22;4.50;99.90
5705;DHT22;2877;48.238;11.160;2023-12-20T13:53:48;4.50;99.90
5705;DHT22;2877;48.238;11.160;2023-12-20T13:56:14;4.50;99.90
5705;DHT22;2877;48.238;11.160;2023-12-20T13:58:40;4.50;99.90
5705;DHT22;2877;48.238;11.160;2023-12-20T14:01:07;4.50;99.90
5705;DHT22;2877;48.238;11.160;2023-12-20T14:03:33;4.50;99.90
5705;DHT22;2877;48.238;11.160;2023-12-20T14:05:58;4.50;99.90
5705;DHT22;2877;48.238;11.160;2023-12-20T14:08:24;4.50;99.90
5705;DHT22;2877;48.238;11.160;2023-12-20T14:10:49;4.50;99.90
5705;DHT22;2877;48.238;11.160;2023-12-20T14:13:15;4.50;99.90
5705;DHT22;2877;48.238;11.160;2023-12-20T14:15:41;4.50;99.90
5705;DHT22;2877;48.238;11.160;2023-12-20T14:18:06;4.50;99.90
5705;DHT22;2877;48.238;11.160;2023-12-20T14:20:33;4.50;99.90
5705;DHT22;2877;48.238;11.160;2023-12-20T14:23:03;4.50;99.90
5705;DHT22;2877;48.238;11.160;2023-12-20T14:25:29;4.60;99.90
5705;DHT22;2877;48.238;11.160;2023-12-20T14:27:54;4.60;99.90
5705;DHT22;2877;48.238;11.160;2023-12-20T14:30:20;4.50;99.90
5705;DHT22;2877;48.238;11.160;2023-12-20T14:32:45;4.50;99.90
5705;DHT22;2877;48.238;11.160;2023-12-20T14:35:13;4.50;99.90
5705;DHT22;2877;48.238;11.160;2023-12-20T14:37:39;4.50;99.90
5705;DHT22;2877;48.238;11.160;2023-12-20T14:40:06;4.40;99.90
5705;DHT22;2877;48.238;11.160;2023-12-20T14:42:36;4.30;99.90
5705;DHT22;2877;48.238;11.160;2023-12-20T14:45:01;4.20;99.90
5705;DHT22;2877;48.238;11.160;2023-12-20T14:47:27;4.20;99.90
5705;DHT22;2877;48.238;11.160;2023-12-20T14:49:52;4.10;99.90
5705;DHT22;2877;48.238;11.160;2023-12-20T14:52:18;4.10;99.90
5705;DHT22;2877;48.238;11.160;2023-12-20T14:54:46;4.00;99.90
5705;DHT22;2877;48.238;11.160;2023-12-20T14:57:12;3.90;99.90
5705;DHT22;2877;48.238;11.160;2023-12-20T14:59:37;3.90;99.90
5705;DHT22;2877;48.238;11.160;2023-12-20T15:02:03;3.80;99.90
5705;DHT22;2877;48.238;11.160;2023-12-20T15:04:30;3.70;99.90
5705;DHT22;2877;48.238;11.160;2023-12-20T15:06:56;3.70;99.90
5705;DHT22;2877;48.238;11.160;2023-12-20T15:09:22;3.70;99.90
5705;DHT22;2877;48.238;11.160;2023-12-20T15:11:47;3.70;99.90
5705;DHT22;2877;48.238;11.160;2023-12-20T15:14:13;3.70;99.90
5705;DHT22;2877;48.238;11.160;2023-12-20T15:16:45;3.70;99.90
5705;DHT22;2877;48.238;11.160;2023-12-20T15:19:14;3.60;99.90
5705;DHT22;2877;48.238;11.160;2023-12-20T15:21:40;3.60;99.90
5705;DHT22;2877;48.238;11.160;2023-12-20T15:24:10;3.60;99.90
5705;DHT22;2877;48.238;11.160;2023-12-20T15:26:44;3.50;99.90
5705;DHT22;2877;48.238;11.160;2023-12-20T15:29:11;3.50;99.90
5705;DHT22;2877;48.238;11.160;2023-12-20T15:31:44;3.50;99.90
5705;DHT22;2877;48.238;11.160;2023-12-20T15:34:10;3.50;99.90
5705;DHT22;2877;48.238;11.160;2023-12-20T15:36:36;3.40;99.90
5705;DHT22;2877;48.238;11.160;2023-12-20T15:39:02;3.40;99.90
5705;DHT22;2877;48.238;11.160;2023-12-20T15:41:28;3.40;99.90
5705;DHT22;2877;48.238;11.160;2023-12-20T15:43:54;3.30;99.90
5705;DHT22;2877;48.238;11.160;2023-12-20T15:46:21;3.30;99.90
5705;DHT22;2877;48.238;11.160;2023-12-20T15:48:47;3.20;99.90
5705;DHT22;2877;48.238;11.160;2023-12-20T15:51:13;3.20;99.90
5705;DHT22;2877;48.238;11.160;2023-12-20T15:53:39;3.20;99.90
5705;DHT22;2877;48.238;11.160;2023-12-20T15:56:05;3.10;99.90
5705;DHT22;2877;48.238;11.160;2023-12-20T15:58:31;3.10;99.90
5705;DHT22;2877;48.238;11.160;2023-12-20T16:00:57;3.10;99.90
5705;DHT22;2877;48.238;11.160;2023-12-20T16:03:22;3.10;99.90